Time;durP1;ratioP1;P1;durP2;ratioP2;P2;SDS_P1;SDS_P2;PMS_P1;PMS_P2;Temp;Humidity;BMP_temperature;BMP_pressure;BME280_temperature;BME280_humidity;BME280_pressure;Samples;Min_cycle;Max_cycle;Signal;HPM_P1;HPM_P2
2023/08/05 00:00:28;;;;;;;9.55;4.05;;;;;;;;;;5069821;28;20812;-65
2023/08/05 00:02:55;;;;;;;8.43;3.88;;;;;;;;;;5065549;28;20377;-65
2023/08/05 00:05:21;;;;;;;5.93;3.80;;;;;;;;;;5059195;28;20043;-66
2023/08/05 00:07:47;;;;;;;5.38;3.40;;;;;;;;;;5067227;28;20021;-66
2023/08/05 00:10:13;;;;;;;10.80;4.13;;;;;;;;;;5052092;28;20257;-66
2023/08/05 00:12:39;;;;;;;9.55;3.80;;;;;;;;;;5061189;28;20063;-71
2023/08/05 00:15:05;;;;;;;11.23;5.22;;;;;;;;;;5063727;28;20073;-66
2023/08/05 00:17:32;;;;;;;11.80;4.35;;;;;;;;;;5063360;28;20514;-66
2023/08/05 00:19:58;;;;;;;10.15;4.72;;;;;;;;;;5054545;28;20021;-65
2023/08/05 00:22:24;;;;;;;9.60;4.03;;;;;;;;;;5061951;28;20282;-65
2023/08/05 00:24:50;;;;;;;9.80;5.00;;;;;;;;;;5049215;28;20029;-65
2023/08/05 00:27:16;;;;;;;4.25;3.10;;;;;;;;;;5059252;28;20036;-64
2023/08/05 00:29:42;;;;;;;4.97;3.38;;;;;;;;;;5052174;28;20021;-65
2023/08/05 00:32:08;;;;;;;4.22;3.15;;;;;;;;;;5058108;28;20018;-67
2023/08/05 00:34:35;;;;;;;4.53;2.70;;;;;;;;;;5048735;28;20068;-68
2023/08/05 00:37:03;;;;;;;5.72;3.97;;;;;;;;;;5052376;28;20025;-68
2023/08/05 00:39:29;;;;;;;5.95;3.25;;;;;;;;;;5049975;28;20396;-70
2023/08/05 00:41:56;;;;;;;5.53;3.30;;;;;;;;;;5058733;28;20093;-67
2023/08/05 00:44:23;;;;;;;3.55;2.92;;;;;;;;;;5070261;28;20031;-67
2023/08/05 00:46:49;;;;;;;5.80;2.80;;;;;;;;;;5051257;28;20045;-64
2023/08/05 00:49:16;;;;;;;4.82;2.67;;;;;;;;;;5058943;28;20328;-65
2023/08/05 00:51:42;;;;;;;4.75;2.63;;;;;;;;;;5070475;28;20039;-65
2023/08/05 00:54:08;;;;;;;4.75;2.55;;;;;;;;;;5056356;28;20024;-69
2023/08/05 00:56:34;;;;;;;4.28;2.45;;;;;;;;;;5060946;28;20028;-70
2023/08/05 00:59:01;;;;;;;2.92;2.20;;;;;;;;;;5059478;28;20082;-71
2023/08/05 01:01:27;;;;;;;4.03;2.03;;;;;;;;;;5063255;28;20032;-70
2023/08/05 01:03:53;;;;;;;2.63;2.08;;;;;;;;;;5059278;28;20487;-70
2023/08/05 01:06:20;;;;;;;3.17;1.92;;;;;;;;;;5059870;28;20027;-69
2023/08/05 01:08:47;;;;;;;1.77;1.67;;;;;;;;;;5054090;28;20025;-69
2023/08/05 01:11:13;;;;;;;2.38;1.80;;;;;;;;;;5071292;28;20477;-68
2023/08/05 01:13:42;;;;;;;1.55;1.45;;;;;;;;;;5051808;28;20043;-69
2023/08/05 01:16:08;;;;;;;1.65;1.55;;;;;;;;;;5057335;28;20029;-68
2023/08/05 01:18:36;;;;;;;1.60;1.50;;;;;;;;;;5050258;28;20182;-70
2023/08/05 01:21:03;;;;;;;1.80;1.70;;;;;;;;;;5054875;28;20408;-69
2023/08/05 01:23:46;;;;;;;2.35;1.88;;;;;;;;;;5057655;28;20052;-70
2023/08/05 01:26:12;;;;;;;3.50;1.60;;;;;;;;;;5054297;28;20055;-70
2023/08/05 01:28:38;;;;;;;2.05;1.70;;;;;;;;;;5068243;28;20035;-71
2023/08/05 01:31:06;;;;;;;3.22;2.22;;;;;;;;;;5058059;28;20464;-71
2023/08/05 01:33:32;;;;;;;2.60;1.90;;;;;;;;;;5068934;28;20033;-72
2023/08/05 01:35:58;;;;;;;3.28;2.13;;;;;;;;;;5049899;28;20053;-69
2023/08/05 01:38:25;;;;;;;2.60;2.05;;;;;;;;;;5053690;28;20095;-70
2023/08/05 01:40:51;;;;;;;4.50;2.20;;;;;;;;;;5054478;28;20032;-72
2023/08/05 01:43:17;;;;;;;3.83;2.03;;;;;;;;;;5049645;28;20029;-70
2023/08/05 01:45:43;;;;;;;3.97;2.22;;;;;;;;;;5049838;28;20029;-68
2023/08/05 01:48:12;;;;;;;3.53;1.90;;;;;;;;;;5058818;28;20028;-69
2023/08/05 01:50:38;;;;;;;4.75;2.38;;;;;;;;;;5053387;28;20021;-69
2023/08/05 01:53:05;;;;;;;3.70;2.20;;;;;;;;;;5067962;28;20035;-68
2023/08/05 01:55:31;;;;;;;4.93;2.45;;;;;;;;;;5060740;28;22643;-69
2023/08/05 01:57:57;;;;;;;5.70;2.17;;;;;;;;;;5063730;28;20031;-69
2023/08/05 02:00:23;;;;;;;2.47;1.80;;;;;;;;;;5054566;28;20056;-69
2023/08/05 02:02:49;;;;;;;3.53;2.28;;;;;;;;;;5063854;28;20071;-68
2023/08/05 02:05:15;;;;;;;3.92;2.35;;;;;;;;;;5060406;28;20025;-70
2023/08/05 02:07:41;;;;;;;2.72;2.33;;;;;;;;;;5058185;28;20384;-70
2023/08/05 02:10:08;;;;;;;2.03;1.75;;;;;;;;;;5063048;28;20035;-70
2023/08/05 02:12:34;;;;;;;3.03;2.00;;;;;;;;;;5052044;28;20021;-70
2023/08/05 02:15:00;;;;;;;2.00;1.70;;;;;;;;;;5060211;28;20032;-71
2023/08/05 02:17:26;;;;;;;3.20;1.70;;;;;;;;;;5061193;28;20476;-70
2023/08/05 02:19:52;;;;;;;2.78;1.75;;;;;;;;;;5059883;28;20036;-68
2023/08/05 02:22:18;;;;;;;4.18;1.80;;;;;;;;;;5059939;28;20063;-70
2023/08/05 02:24:47;;;;;;;2.20;1.90;;;;;;;;;;5065518;28;20434;-70
2023/08/05 02:27:14;;;;;;;4.70;1.73;;;;;;;;;;5068314;28;20090;-69
2023/08/05 02:29:40;;;;;;;2.00;1.63;;;;;;;;;;5054724;28;20033;-70
2023/08/05 02:32:06;;;;;;;2.83;1.50;;;;;;;;;;5052191;28;20104;-68
2023/08/05 02:34:32;;;;;;;1.75;1.60;;;;;;;;;;5056501;28;20040;-70
2023/08/05 02:36:59;;;;;;;2.38;1.77;;;;;;;;;;5056108;28;20090;-71
2023/08/05 02:39:25;;;;;;;2.67;1.58;;;;;;;;;;5058433;28;20021;-70
2023/08/05 02:41:52;;;;;;;1.85;1.60;;;;;;;;;;5058338;28;20020;-69
2023/08/05 02:44:18;;;;;;;1.92;1.73;;;;;;;;;;5054042;28;20568;-70
2023/08/05 02:46:44;;;;;;;2.78;1.67;;;;;;;;;;5060418;28;20025;-70
2023/08/05 02:49:10;;;;;;;2.53;1.80;;;;;;;;;;5066424;28;20523;-69
2023/08/05 02:51:37;;;;;;;1.52;1.40;;;;;;;;;;5063638;28;20021;-69
2023/08/05 02:54:03;;;;;;;2.13;1.50;;;;;;;;;;5060485;28;20025;-69
2023/08/05 02:56:33;;;;;;;2.17;1.70;;;;;;;;;;5066956;28;20028;-69
2023/08/05 02:58:59;;;;;;;1.73;1.60;;;;;;;;;;5046389;28;20039;-69
2023/08/05 03:01:26;;;;;;;2.30;1.63;;;;;;;;;;5067828;28;20031;-69
2023/08/05 03:03:52;;;;;;;1.70;1.50;;;;;;;;;;5071255;28;20480;-70
2023/08/05 03:06:18;;;;;;;1.20;1.20;;;;;;;;;;5063201;28;20036;-70
2023/08/05 03:08:44;;;;;;;4.03;1.60;;;;;;;;;;5063148;28;20028;-69
2023/08/05 03:11:11;;;;;;;2.13;1.48;;;;;;;;;;5067423;28;20036;-70
2023/08/05 03:13:37;;;;;;;4.45;1.83;;;;;;;;;;5059784;28;20032;-71
2023/08/05 03:16:12;;;;;;;2.95;1.60;;;;;;;;;;5054474;28;20039;-70
2023/08/05 03:18:39;;;;;;;1.65;1.30;;;;;;;;;;5051287;28;20426;-69
2023/08/05 03:21:05;;;;;;;2.58;1.25;;;;;;;;;;5053561;28;20488;-71
2023/08/05 03:23:31;;;;;;;1.25;1.20;;;;;;;;;;5065974;28;20055;-70
2023/08/05 03:25:57;;;;;;;1.20;1.10;;;;;;;;;;5061383;28;20033;-69
2023/08/05 03:28:23;;;;;;;3.40;1.40;;;;;;;;;;5061683;28;20074;-69
2023/08/05 03:30:50;;;;;;;2.85;1.35;;;;;;;;;;5056467;28;20470;-70
2023/08/05 03:33:16;;;;;;;1.80;1.67;;;;;;;;;;5057387;28;20044;-68
2023/08/05 03:35:43;;;;;;;1.70;1.13;;;;;;;;;;5059668;28;20047;-69
2023/08/05 03:38:09;;;;;;;1.20;1.20;;;;;;;;;;5050210;28;20037;-68
2023/08/05 03:40:35;;;;;;;2.13;1.13;;;;;;;;;;5054196;28;20034;-68
2023/08/05 03:43:02;;;;;;;2.30;1.10;;;;;;;;;;5064743;28;20507;-68
2023/08/05 03:45:28;;;;;;;1.35;1.27;;;;;;;;;;5058826;28;20028;-69
2023/08/05 03:47:54;;;;;;;1.10;1.10;;;;;;;;;;5061507;28;20025;-68
2023/08/05 03:50:21;;;;;;;1.17;1.10;;;;;;;;;;5068739;28;20028;-69
2023/08/05 03:52:48;;;;;;;2.33;1.30;;;;;;;;;;5064758;28;20024;-69
2023/08/05 03:55:14;;;;;;;1.38;1.00;;;;;;;;;;5067038;28;20439;-69
2023/08/05 03:57:41;;;;;;;1.00;1.00;;;;;;;;;;5067511;28;20066;-69
2023/08/05 04:00:11;;;;;;;1.10;1.00;;;;;;;;;;5060042;28;20020;-68
2023/08/05 04:02:37;;;;;;;1.27;1.10;;;;;;;;;;5054433;28;20432;-68
2023/08/05 04:05:04;;;;;;;0.80;0.80;;;;;;;;;;5051054;28;20485;-69
2023/08/05 04:07:31;;;;;;;1.20;1.10;;;;;;;;;;5045205;28;20446;-68
2023/08/05 04:09:57;;;;;;;1.35;1.30;;;;;;;;;;5054326;28;20075;-68
2023/08/05 04:12:23;;;;;;;1.10;1.00;;;;;;;;;;5051588;28;20036;-69
2023/08/05 04:14:50;;;;;;;1.15;1.05;;;;;;;;;;5053862;28;20096;-68
2023/08/05 04:17:17;;;;;;;1.40;1.30;;;;;;;;;;5053257;28;20094;-69
2023/08/05 04:19:47;;;;;;;1.25;1.20;;;;;;;;;;5056831;28;20035;-68
2023/08/05 04:22:16;;;;;;;1.63;0.95;;;;;;;;;;5056752;28;20121;-69
2023/08/05 04:24:45;;;;;;;3.55;1.17;;;;;;;;;;5048114;28;20035;-70
2023/08/05 04:27:11;;;;;;;1.00;1.00;;;;;;;;;;5058608;28;20104;-70
2023/08/05 04:29:37;;;;;;;1.00;1.00;;;;;;;;;;5060853;28;20025;-69
2023/08/05 04:32:03;;;;;;;1.30;1.20;;;;;;;;;;5073417;28;20475;-69
2023/08/05 04:34:35;;;;;;;0.90;0.90;;;;;;;;;;5060167;28;20075;-69
2023/08/05 04:37:14;;;;;;;1.00;1.00;;;;;;;;;;5054863;28;20052;-70
2023/08/05 04:39:41;;;;;;;1.45;1.10;;;;;;;;;;5056461;28;20020;-69
2023/08/05 04:42:07;;;;;;;1.73;1.27;;;;;;;;;;5055275;28;20029;-68
2023/08/05 04:44:33;;;;;;;1.20;1.20;;;;;;;;;;5054331;28;20016;-69
2023/08/05 04:46:59;;;;;;;1.80;1.30;;;;;;;;;;5053555;28;20657;-69
2023/08/05 04:49:25;;;;;;;1.17;1.17;;;;;;;;;;5067161;28;20028;-69
2023/08/05 04:51:51;;;;;;;1.08;1.00;;;;;;;;;;5051516;28;20024;-68
2023/08/05 04:54:17;;;;;;;0.80;0.80;;;;;;;;;;5076928;28;20071;-68
2023/08/05 04:56:43;;;;;;;1.02;0.98;;;;;;;;;;5049929;28;20027;-69
2023/08/05 04:59:09;;;;;;;1.13;1.02;;;;;;;;;;5060479;28;20047;-71
2023/08/05 05:01:38;;;;;;;1.42;1.20;;;;;;;;;;5056549;28;20032;-70
2023/08/05 05:04:04;;;;;;;1.17;1.00;;;;;;;;;;5052145;28;20028;-71
2023/08/05 05:06:30;;;;;;;2.22;1.73;;;;;;;;;;5055504;28;20040;-70
2023/08/05 05:08:56;;;;;;;2.00;1.52;;;;;;;;;;5074916;28;20223;-70
2023/08/05 05:11:23;;;;;;;6.15;1.60;;;;;;;;;;5048990;28;20037;-70
2023/08/05 05:13:50;;;;;;;5.07;1.73;;;;;;;;;;5051593;28;20544;-72
2023/08/05 05:16:19;;;;;;;4.10;1.67;;;;;;;;;;5062659;28;20360;-70
2023/08/05 05:18:45;;;;;;;5.13;1.58;;;;;;;;;;5051895;28;20115;-71
2023/08/05 05:21:11;;;;;;;6.85;1.77;;;;;;;;;;5055369;28;20036;-70
2023/08/05 05:23:38;;;;;;;2.38;1.40;;;;;;;;;;5058476;28;20093;-70
2023/08/05 05:26:04;;;;;;;3.65;1.58;;;;;;;;;;5050204;28;20077;-70
2023/08/05 05:28:30;;;;;;;3.08;1.92;;;;;;;;;;5057492;28;20033;-70
2023/08/05 05:30:58;;;;;;;5.75;1.83;;;;;;;;;;5054755;28;20384;-70
2023/08/05 05:33:25;;;;;;;2.83;1.80;;;;;;;;;;5061151;28;20028;-71
2023/08/05 05:35:51;;;;;;;4.97;1.95;;;;;;;;;;5051435;28;20088;-71
2023/08/05 05:38:17;;;;;;;3.25;1.75;;;;;;;;;;5061334;28;20095;-71
2023/08/05 05:40:43;;;;;;;5.80;1.88;;;;;;;;;;5057261;28;20036;-70
2023/08/05 05:43:09;;;;;;;5.13;2.10;;;;;;;;;;5058355;28;20043;-70
2023/08/05 05:45:35;;;;;;;3.47;2.00;;;;;;;;;;5060588;28;20029;-70
2023/08/05 05:48:02;;;;;;;4.45;1.70;;;;;;;;;;5052380;28;20075;-71
2023/08/05 05:50:28;;;;;;;4.15;1.90;;;;;;;;;;5064020;28;20059;-71
2023/08/05 05:52:54;;;;;;;3.30;1.88;;;;;;;;;;5063850;28;20036;-72
2023/08/05 05:55:20;;;;;;;3.50;2.28;;;;;;;;;;5053552;28;20033;-71
2023/08/05 05:57:46;;;;;;;4.75;2.45;;;;;;;;;;5056428;28;20374;-69
2023/08/05 06:00:14;;;;;;;5.10;3.35;;;;;;;;;;5050918;28;20364;-68
2023/08/05 06:02:41;;;;;;;5.72;2.67;;;;;;;;;;5061133;28;20496;-70
2023/08/05 06:05:07;;;;;;;3.30;2.35;;;;;;;;;;5059302;28;20400;-69
2023/08/05 06:07:33;;;;;;;7.53;2.67;;;;;;;;;;5054492;28;20028;-69
2023/08/05 06:10:00;;;;;;;5.82;3.15;;;;;;;;;;5062491;28;20028;-69
2023/08/05 06:12:32;;;;;;;6.18;3.10;;;;;;;;;;5056810;28;20040;-69
2023/08/05 06:15:00;;;;;;;6.07;3.53;;;;;;;;;;5061509;28;20016;-70
2023/08/05 06:17:27;;;;;;;7.55;3.15;;;;;;;;;;5063010;28;20559;-70
2023/08/05 06:19:53;;;;;;;8.40;3.78;;;;;;;;;;5058566;28;20024;-70
2023/08/05 06:22:19;;;;;;;9.27;4.38;;;;;;;;;;5057320;28;20171;-72
2023/08/05 06:24:45;;;;;;;6.57;3.85;;;;;;;;;;5054886;28;20028;-69
2023/08/05 06:27:11;;;;;;;8.13;4.22;;;;;;;;;;5056869;28;20032;-70
2023/08/05 06:29:37;;;;;;;7.15;4.20;;;;;;;;;;5061339;28;20025;-70
2023/08/05 06:32:04;;;;;;;9.30;4.18;;;;;;;;;;5063807;28;20024;-68
2023/08/05 06:34:30;;;;;;;7.10;3.78;;;;;;;;;;5055357;28;20091;-69
2023/08/05 06:36:56;;;;;;;8.32;4.00;;;;;;;;;;5058766;28;20029;-70
2023/08/05 06:39:22;;;;;;;6.78;3.97;;;;;;;;;;5060431;28;20032;-69
2023/08/05 06:41:48;;;;;;;7.80;4.43;;;;;;;;;;5059291;28;20290;-69
2023/08/05 06:44:14;;;;;;;11.38;4.97;;;;;;;;;;5060262;28;20041;-69
2023/08/05 06:46:41;;;;;;;11.98;4.38;;;;;;;;;;5057555;28;20511;-72
2023/08/05 06:49:09;;;;;;;10.45;4.63;;;;;;;;;;5054115;28;20056;-72
2023/08/05 06:51:35;;;;;;;12.38;4.50;;;;;;;;;;5058203;28;20223;-71
2023/08/05 06:54:02;;;;;;;11.00;4.90;;;;;;;;;;5059244;28;20021;-71
2023/08/05 06:56:28;;;;;;;9.88;4.60;;;;;;;;;;5057459;28;20494;-71
2023/08/05 06:58:54;;;;;;;6.45;3.85;;;;;;;;;;5059031;28;20020;-70
2023/08/05 07:01:20;;;;;;;11.27;4.45;;;;;;;;;;5060402;28;20119;-69
2023/08/05 07:03:48;;;;;;;5.18;3.08;;;;;;;;;;5053768;28;20550;-69
2023/08/05 07:06:14;;;;;;;6.47;3.30;;;;;;;;;;5059367;28;20032;-70
2023/08/05 07:08:40;;;;;;;6.28;3.10;;;;;;;;;;5055775;28;20301;-70
2023/08/05 07:11:06;;;;;;;6.97;3.03;;;;;;;;;;5052607;28;20067;-70
2023/08/05 07:13:32;;;;;;;3.97;2.60;;;;;;;;;;5059168;28;20032;-70
2023/08/05 07:15:59;;;;;;;6.45;2.70;;;;;;;;;;5061504;28;20083;-70
2023/08/05 07:18:26;;;;;;;5.30;2.90;;;;;;;;;;5057320;28;20345;-69
2023/08/05 07:20:52;;;;;;;7.10;2.83;;;;;;;;;;5057072;28;20142;-70
2023/08/05 07:23:18;;;;;;;6.90;3.83;;;;;;;;;;5049801;28;20510;-69
2023/08/05 07:25:45;;;;;;;3.80;2.50;;;;;;;;;;5051825;28;20718;-69
2023/08/05 07:28:11;;;;;;;7.00;2.83;;;;;;;;;;5051812;28;20032;-69
2023/08/05 07:30:37;;;;;;;6.50;2.78;;;;;;;;;;5061819;28;20024;-70
2023/08/05 07:33:04;;;;;;;4.53;3.53;;;;;;;;;;5054744;28;20032;-69
2023/08/05 07:35:32;;;;;;;5.10;2.63;;;;;;;;;;5059923;28;20110;-69
2023/08/05 07:38:00;;;;;;;6.55;2.42;;;;;;;;;;5052872;28;20033;-69
2023/08/05 07:40:27;;;;;;;5.70;2.60;;;;;;;;;;5056886;28;20093;-70
2023/08/05 07:42:53;;;;;;;5.38;2.83;;;;;;;;;;5050618;28;20078;-68
2023/08/05 07:45:21;;;;;;;5.03;2.35;;;;;;;;;;5053960;28;20024;-69
2023/08/05 07:47:47;;;;;;;5.15;2.70;;;;;;;;;;5051624;28;20051;-71
2023/08/05 07:50:16;;;;;;;7.38;3.90;;;;;;;;;;5058400;28;20548;-69
2023/08/05 07:52:45;;;;;;;9.63;3.88;;;;;;;;;;5053592;28;20490;-70
2023/08/05 07:55:11;;;;;;;6.75;3.30;;;;;;;;;;5050296;28;20495;-71
2023/08/05 07:57:37;;;;;;;13.77;3.75;;;;;;;;;;5060755;28;20043;-70
2023/08/05 08:00:04;;;;;;;4.95;3.47;;;;;;;;;;5060924;28;20025;-73
2023/08/05 08:02:31;;;;;;;13.90;3.38;;;;;;;;;;5062478;28;20106;-69
2023/08/05 08:05:00;;;;;;;6.07;3.47;;;;;;;;;;5056408;28;20048;-70
2023/08/05 08:07:26;;;;;;;8.00;3.25;;;;;;;;;;5063691;28;20032;-70
2023/08/05 08:09:53;;;;;;;12.18;3.70;;;;;;;;;;5059471;28;20028;-69
2023/08/05 08:12:19;;;;;;;7.95;4.20;;;;;;;;;;5060260;28;20081;-73
2023/08/05 08:14:45;;;;;;;6.65;3.60;;;;;;;;;;5059198;28;20658;-70
2023/08/05 08:17:11;;;;;;;10.93;4.35;;;;;;;;;;5061673;28;20060;-70
2023/08/05 08:19:37;;;;;;;8.07;3.50;;;;;;;;;;5055816;28;20021;-69
2023/08/05 08:22:03;;;;;;;9.55;4.57;;;;;;;;;;5064676;28;20055;-70
2023/08/05 08:24:29;;;;;;;11.38;4.53;;;;;;;;;;5053492;28;20315;-69
2023/08/05 08:26:55;;;;;;;6.38;3.42;;;;;;;;;;5060491;28;20112;-69
2023/08/05 08:29:21;;;;;;;10.93;4.07;;;;;;;;;;5056310;28;21128;-69
2023/08/05 08:31:47;;;;;;;9.48;4.10;;;;;;;;;;5054508;28;20075;-69
2023/08/05 08:34:14;;;;;;;6.25;4.18;;;;;;;;;;5057223;28;20043;-69
2023/08/05 08:36:40;;;;;;;9.35;4.63;;;;;;;;;;5061998;28;20020;-68
2023/08/05 08:39:06;;;;;;;11.50;4.03;;;;;;;;;;5059997;28;20085;-69
2023/08/05 08:41:38;;;;;;;9.52;4.68;;;;;;;;;;5068880;28;20032;-69
2023/08/05 08:44:04;;;;;;;9.35;5.22;;;;;;;;;;5056930;28;20407;-72
2023/08/05 08:46:31;;;;;;;11.10;4.85;;;;;;;;;;5052741;28;20040;-69
2023/08/05 08:48:57;;;;;;;7.65;4.20;;;;;;;;;;5054597;28;20026;-70
2023/08/05 08:51:23;;;;;;;11.32;3.90;;;;;;;;;;5054140;28;20104;-70
2023/08/05 08:53:51;;;;;;;9.95;4.78;;;;;;;;;;5051008;28;20021;-70
2023/08/05 08:56:20;;;;;;;7.05;4.13;;;;;;;;;;5071810;28;20111;-70
2023/08/05 08:58:46;;;;;;;14.02;5.22;;;;;;;;;;5053423;28;20033;-71
2023/08/05 09:01:16;;;;;;;8.65;4.43;;;;;;;;;;5056450;28;20130;-69
2023/08/05 09:03:43;;;;;;;12.00;4.03;;;;;;;;;;5051895;28;20021;-71
2023/08/05 09:06:09;;;;;;;10.23;4.00;;;;;;;;;;5063045;28;20116;-71
2023/08/05 09:08:36;;;;;;;6.28;4.10;;;;;;;;;;5054413;28;20033;-71
2023/08/05 09:11:02;;;;;;;9.85;3.97;;;;;;;;;;5060214;28;20546;-70
2023/08/05 09:13:28;;;;;;;9.07;4.22;;;;;;;;;;5061959;28;20033;-71
2023/08/05 09:15:55;;;;;;;5.85;3.40;;;;;;;;;;5055219;28;20029;-71
2023/08/05 09:18:21;;;;;;;8.60;3.92;;;;;;;;;;5059266;28;20039;-70
2023/08/05 09:20:49;;;;;;;8.25;3.88;;;;;;;;;;5064562;28;20033;-71
2023/08/05 09:23:16;;;;;;;9.25;4.10;;;;;;;;;;5049506;28;20508;-71
2023/08/05 09:25:46;;;;;;;7.80;3.60;;;;;;;;;;5062080;28;20025;-70
2023/08/05 09:28:12;;;;;;;5.57;3.50;;;;;;;;;;5053096;28;20531;-68
2023/08/05 09:30:39;;;;;;;8.02;2.88;;;;;;;;;;5048553;28;20028;-69
2023/08/05 09:33:06;;;;;;;4.95;3.30;;;;;;;;;;5048092;28;20025;-69
2023/08/05 09:35:32;;;;;;;5.38;3.38;;;;;;;;;;5049466;28;20047;-70
2023/08/05 09:38:00;;;;;;;4.35;2.80;;;;;;;;;;5055224;28;20162;-70
2023/08/05 09:40:28;;;;;;;5.40;3.50;;;;;;;;;;5051095;28;20048;-70
2023/08/05 09:42:59;;;;;;;8.00;3.42;;;;;;;;;;5069148;28;20028;-68
2023/08/05 09:45:28;;;;;;;5.03;3.45;;;;;;;;;;5059484;28;20021;-72
2023/08/05 09:48:03;;;;;;;10.50;3.80;;;;;;;;;;5047856;28;20029;-69
2023/08/05 09:50:31;;;;;;;6.40;3.88;;;;;;;;;;5044264;28;20032;-68
2023/08/05 09:53:00;;;;;;;6.47;3.80;;;;;;;;;;5046050;28;20354;-70
2023/08/05 09:55:27;;;;;;;5.68;3.40;;;;;;;;;;5049662;28;20036;-73
2023/08/05 09:57:54;;;;;;;5.82;3.75;;;;;;;;;;5057858;28;20040;-69
2023/08/05 10:00:20;;;;;;;5.20;3.15;;;;;;;;;;5058122;28;20044;-69
2023/08/05 10:02:47;;;;;;;5.72;4.00;;;;;;;;;;5061682;28;20036;-69
2023/08/05 10:05:13;;;;;;;4.90;3.30;;;;;;;;;;5073070;28;20036;-70
2023/08/05 10:07:40;;;;;;;4.63;3.17;;;;;;;;;;5062725;28;20036;-72
2023/08/05 10:10:16;;;;;;;5.35;3.10;;;;;;;;;;5062527;28;20074;-69
2023/08/05 10:13:17;;;;;;;5.32;3.35;;;;;;;;;;5065363;28;20488;-71
2023/08/05 10:15:46;;;;;;;4.00;3.05;;;;;;;;;;5018287;28;20049;-73
2023/08/05 10:18:15;;;;;;;7.13;3.78;;;;;;;;;;5049416;28;20045;-71
2023/08/05 10:20:41;;;;;;;3.33;2.70;;;;;;;;;;5066158;28;20056;-72
2023/08/05 10:23:08;;;;;;;4.25;3.00;;;;;;;;;;5054060;28;20033;-71
2023/08/05 10:25:40;;;;;;;5.20;3.40;;;;;;;;;;5055860;28;20385;-72
2023/08/05 10:28:07;;;;;;;7.28;3.50;;;;;;;;;;5055017;28;20115;-72
2023/08/05 10:30:41;;;;;;;4.00;3.05;;;;;;;;;;5050404;28;20017;-71
2023/08/05 10:33:09;;;;;;;4.55;3.13;;;;;;;;;;5058912;28;20044;-73
2023/08/05 10:35:42;;;;;;;4.10;2.80;;;;;;;;;;5065999;28;20049;-72
2023/08/05 10:38:12;;;;;;;4.22;2.70;;;;;;;;;;5074536;28;20036;-71
2023/08/05 10:40:44;;;;;;;6.32;2.97;;;;;;;;;;5059634;28;20479;-73
2023/08/05 10:43:10;;;;;;;3.67;2.85;;;;;;;;;;5060201;28;20016;-71
2023/08/05 10:45:42;;;;;;;4.47;3.08;;;;;;;;;;5057314;28;20041;-72
2023/08/05 10:48:10;;;;;;;4.70;3.00;;;;;;;;;;5065572;28;20392;-71
2023/08/05 10:50:37;;;;;;;2.90;2.60;;;;;;;;;;5059075;28;20322;-72
2023/08/05 10:53:11;;;;;;;7.72;3.72;;;;;;;;;;5058699;28;20569;-72
2023/08/05 10:55:47;;;;;;;3.80;2.63;;;;;;;;;;5054125;28;20442;-71
2023/08/05 10:58:14;;;;;;;4.60;2.67;;;;;;;;;;5059535;28;20043;-69
2023/08/05 11:00:41;;;;;;;3.30;2.58;;;;;;;;;;5064018;28;20028;-69
2023/08/05 11:03:25;;;;;;;3.45;2.58;;;;;;;;;;5065553;28;20028;-68
2023/08/05 11:05:54;;;;;;;4.33;2.40;;;;;;;;;;5049814;28;20039;-69
2023/08/05 11:08:21;;;;;;;4.28;3.33;;;;;;;;;;5059503;28;20662;-69
2023/08/05 11:10:51;;;;;;;5.47;2.85;;;;;;;;;;5050993;28;20075;-71
2023/08/05 11:13:19;;;;;;;4.40;2.95;;;;;;;;;;5064145;28;20047;-70
2023/08/05 11:16:05;;;;;;;3.72;2.60;;;;;;;;;;5063685;28;20030;-70
2023/08/05 11:18:31;;;;;;;4.22;2.60;;;;;;;;;;5066527;28;20033;-71
2023/08/05 11:20:58;;;;;;;3.05;2.40;;;;;;;;;;5056156;28;20043;-71
2023/08/05 11:23:24;;;;;;;5.18;2.40;;;;;;;;;;5056521;28;20036;-71
2023/08/05 11:25:52;;;;;;;3.47;2.80;;;;;;;;;;5056908;28;20162;-70
2023/08/05 11:28:21;;;;;;;3.17;2.20;;;;;;;;;;5051609;28;20133;-69
2023/08/05 11:30:48;;;;;;;3.70;2.58;;;;;;;;;;5055512;28;20494;-72
2023/08/05 11:33:14;;;;;;;3.92;2.25;;;;;;;;;;5056294;28;20064;-72
2023/08/05 11:35:47;;;;;;;3.28;2.47;;;;;;;;;;5061195;28;20404;-71
2023/08/05 11:38:17;;;;;;;3.95;2.33;;;;;;;;;;5070430;28;20166;-71
2023/08/05 11:40:47;;;;;;;2.60;2.20;;;;;;;;;;5055952;28;20699;-73
2023/08/05 11:43:22;;;;;;;3.80;2.45;;;;;;;;;;5060965;28;20027;-70
2023/08/05 11:45:48;;;;;;;4.15;2.10;;;;;;;;;;5061262;28;20033;-71
2023/08/05 11:48:24;;;;;;;2.28;2.08;;;;;;;;;;5063851;28;20046;-70
2023/08/05 11:50:51;;;;;;;2.60;2.13;;;;;;;;;;5059823;28;20652;-66
2023/08/05 11:53:19;;;;;;;3.55;2.00;;;;;;;;;;5057807;28;20037;-74
2023/08/05 11:55:47;;;;;;;3.53;1.90;;;;;;;;;;5059754;28;20032;-69
2023/08/05 11:58:13;;;;;;;3.22;1.95;;;;;;;;;;5054578;28;21028;-69
2023/08/05 12:00:52;;;;;;;2.30;1.90;;;;;;;;;;5056577;28;20029;-69
2023/08/05 12:03:18;;;;;;;3.58;2.15;;;;;;;;;;5052034;28;20480;-68
2023/08/05 12:05:46;;;;;;;1.90;1.70;;;;;;;;;;5058024;28;20027;-69
2023/08/05 12:08:12;;;;;;;2.00;1.70;;;;;;;;;;5056538;28;20037;-68
2023/08/05 12:10:39;;;;;;;2.67;1.80;;;;;;;;;;5053990;28;20054;-69
2023/08/05 12:13:10;;;;;;;2.20;1.90;;;;;;;;;;5059251;28;20376;-69
2023/08/05 12:15:36;;;;;;;3.13;2.03;;;;;;;;;;5064644;28;20025;-69
2023/08/05 12:18:04;;;;;;;2.58;1.70;;;;;;;;;;5055895;28;20033;-70
2023/08/05 12:20:31;;;;;;;2.50;2.00;;;;;;;;;;5054957;28;20438;-69
2023/08/05 12:23:01;;;;;;;2.38;1.80;;;;;;;;;;5056780;28;20135;-68
2023/08/05 12:25:28;;;;;;;2.15;1.95;;;;;;;;;;5051368;28;20035;-69
2023/08/05 12:27:54;;;;;;;3.05;2.05;;;;;;;;;;5057409;28;20033;-68
2023/08/05 12:30:20;;;;;;;2.78;2.03;;;;;;;;;;5051612;28;20048;-68
2023/08/05 12:32:47;;;;;;;1.85;1.70;;;;;;;;;;5049699;28;20040;-70
2023/08/05 12:35:13;;;;;;;1.90;1.55;;;;;;;;;;5059892;28;20094;-69
2023/08/05 12:37:41;;;;;;;2.95;1.70;;;;;;;;;;5065282;28;20503;-68
2023/08/05 12:40:09;;;;;;;2.38;1.83;;;;;;;;;;5069278;28;20377;-69
2023/08/05 12:42:35;;;;;;;1.70;1.60;;;;;;;;;;5053767;28;20025;-68
2023/08/05 12:45:03;;;;;;;2.00;1.70;;;;;;;;;;5065297;28;20039;-70
2023/08/05 12:47:30;;;;;;;2.38;1.90;;;;;;;;;;5058587;28;20036;-69
2023/08/05 12:49:56;;;;;;;2.80;1.90;;;;;;;;;;5058887;28;20519;-69
2023/08/05 12:52:22;;;;;;;3.35;1.90;;;;;;;;;;5066369;28;20111;-73
2023/08/05 12:54:49;;;;;;;4.00;2.08;;;;;;;;;;5059077;28;20082;-71
2023/08/05 12:57:15;;;;;;;1.80;1.65;;;;;;;;;;5068382;28;20377;-71
2023/08/05 12:59:41;;;;;;;4.32;1.90;;;;;;;;;;5055509;28;20088;-70
2023/08/05 13:02:07;;;;;;;2.85;1.95;;;;;;;;;;5061296;28;20085;-70
2023/08/05 13:04:34;;;;;;;2.78;2.40;;;;;;;;;;5056515;28;20578;-70
2023/08/05 13:07:00;;;;;;;2.13;1.80;;;;;;;;;;5056282;28;20041;-70
2023/08/05 13:09:26;;;;;;;1.77;1.67;;;;;;;;;;5055371;28;20021;-69
2023/08/05 13:11:52;;;;;;;2.67;2.13;;;;;;;;;;5053525;28;20471;-69
2023/08/05 13:14:18;;;;;;;2.08;1.67;;;;;;;;;;5054582;28;20057;-69
2023/08/05 13:16:47;;;;;;;2.50;1.88;;;;;;;;;;5051934;28;20035;-69
2023/08/05 13:19:16;;;;;;;2.00;1.80;;;;;;;;;;5053817;28;20480;-70
2023/08/05 13:21:43;;;;;;;2.65;2.20;;;;;;;;;;5066551;28;20431;-70
2023/08/05 13:24:09;;;;;;;7.00;1.92;;;;;;;;;;5051231;28;20059;-70
2023/08/05 13:26:35;;;;;;;2.28;2.08;;;;;;;;;;5051394;28;20430;-70
2023/08/05 13:29:01;;;;;;;2.00;1.80;;;;;;;;;;5048867;28;20037;-69
2023/08/05 13:31:28;;;;;;;1.80;1.60;;;;;;;;;;5058122;28;20357;-69
2023/08/05 13:33:54;;;;;;;1.77;1.60;;;;;;;;;;5071377;28;20487;-70
2023/08/05 13:36:21;;;;;;;2.20;1.60;;;;;;;;;;5054570;28;20040;-70
2023/08/05 13:38:47;;;;;;;2.33;1.60;;;;;;;;;;5051020;28;20103;-70
2023/08/05 13:41:14;;;;;;;1.65;1.52;;;;;;;;;;5061618;28;20023;-69
2023/08/05 13:43:42;;;;;;;1.88;1.60;;;;;;;;;;5060361;28;20024;-68
2023/08/05 13:46:08;;;;;;;2.58;1.60;;;;;;;;;;5059556;28;20024;-70
2023/08/05 13:48:36;;;;;;;2.33;2.13;;;;;;;;;;5052913;28;20036;-69
2023/08/05 13:51:06;;;;;;;2.50;2.00;;;;;;;;;;5075324;28;20380;-69
2023/08/05 13:53:34;;;;;;;2.53;2.08;;;;;;;;;;5063158;28;20036;-69
2023/08/05 13:56:01;;;;;;;2.25;2.05;;;;;;;;;;5058928;28;20021;-68
2023/08/05 13:58:28;;;;;;;6.40;3.13;;;;;;;;;;5059889;28;20064;-69
2023/08/05 14:00:55;;;;;;;4.43;2.30;;;;;;;;;;5057445;28;20103;-68
2023/08/05 14:03:27;;;;;;;1.67;1.58;;;;;;;;;;5060113;28;20036;-69
2023/08/05 14:05:58;;;;;;;2.45;1.75;;;;;;;;;;5059682;28;20549;-69
2023/08/05 14:08:28;;;;;;;2.63;1.90;;;;;;;;;;5056023;28;20115;-70
2023/08/05 14:10:55;;;;;;;2.92;1.90;;;;;;;;;;5062419;28;20025;-68
2023/08/05 14:13:21;;;;;;;2.00;1.65;;;;;;;;;;5059030;28;20126;-68
2023/08/05 14:15:51;;;;;;;1.90;1.70;;;;;;;;;;5059770;28;20032;-70
2023/08/05 14:18:25;;;;;;;2.40;1.90;;;;;;;;;;5059050;28;20090;-68
2023/08/05 14:20:55;;;;;;;2.20;1.83;;;;;;;;;;5075832;28;20044;-68
2023/08/05 14:23:22;;;;;;;1.90;1.67;;;;;;;;;;5066364;28;20139;-68
2023/08/05 14:25:48;;;;;;;2.42;1.85;;;;;;;;;;5051599;28;20557;-69
2023/08/05 14:28:15;;;;;;;3.05;1.90;;;;;;;;;;5054118;28;20516;-69
2023/08/05 14:30:41;;;;;;;3.13;2.35;;;;;;;;;;5055659;28;20179;-69
2023/08/05 14:33:08;;;;;;;2.53;2.05;;;;;;;;;;5059789;28;20432;-69
2023/08/05 14:35:35;;;;;;;5.80;2.88;;;;;;;;;;5055511;28;20040;-67
2023/08/05 14:38:02;;;;;;;1.98;1.77;;;;;;;;;;5064210;28;20510;-68
2023/08/05 14:40:32;;;;;;;1.88;1.70;;;;;;;;;;5069124;28;20412;-70
2023/08/05 14:42:58;;;;;;;2.47;2.28;;;;;;;;;;5056364;28;20033;-71